Time;durP1;ratioP1;P1;durP2;ratioP2;P2;SDS_P1;SDS_P2;PMS_P1;PMS_P2;Temp;Humidity;BMP_temperature;BMP_pressure;BME280_temperature;BME280_humidity;BME280_pressure;Samples;Min_cycle;Max_cycle;Signal;HPM_P1;HPM_P2
2020/12/09 00:04:41;;;;;;;25.67;16.67;;;3.80;95.90;;;;;;10411786;28;20083;-67
2020/12/09 00:09:43;;;;;;;23.90;15.32;;;3.80;96.00;;;;;;10411056;28;20417;-67
2020/12/09 00:14:45;;;;;;;22.98;16.25;;;3.80;95.80;;;;;;10410817;28;20501;-67
2020/12/09 00:19:46;;;;;;;25.33;15.77;;;3.70;95.80;;;;;;10410874;28;20417;-67
2020/12/09 00:24:50;;;;;;;25.77;17.17;;;3.70;95.70;;;;;;10411039;28;20061;-67
2020/12/09 00:29:52;;;;;;;21.90;16.00;;;3.60;95.90;;;;;;10409539;28;20060;-67
2020/12/09 00:34:54;;;;;;;24.00;16.15;;;3.70;96.00;;;;;;10410455;28;20188;-67
2020/12/09 00:39:55;;;;;;;26.63;18.60;;;3.70;96.20;;;;;;10410899;28;20508;-67
2020/12/09 00:44:57;;;;;;;29.75;19.20;;;3.70;96.30;;;;;;10409209;28;20081;-67
2020/12/09 00:55:15;;;;;;;29.40;19.30;;;3.80;96.20;;;;;;10408787;28;20064;-67
2020/12/09 01:00:17;;;;;;;27.90;18.85;;;3.70;96.30;;;;;;10409590;28;20426;-67
2020/12/09 01:05:18;;;;;;;26.90;17.73;;;3.80;96.50;;;;;;10408153;28;20138;-67
2020/12/09 01:10:20;;;;;;;28.05;17.48;;;3.90;96.10;;;;;;10410095;28;20049;-67
2020/12/09 01:15:21;;;;;;;26.80;17.48;;;3.80;96.00;;;;;;10424037;28;20087;-67
2020/12/09 01:20:23;;;;;;;31.60;19.40;;;3.70;96.10;;;;;;10410113;28;20132;-67
2020/12/09 01:25:25;;;;;;;30.33;18.02;;;3.60;96.20;;;;;;10409108;28;20053;-67
2020/12/09 01:30:27;;;;;;;27.40;18.30;;;3.70;96.40;;;;;;10416584;28;20502;-67
2020/12/09 01:35:29;;;;;;;29.95;19.58;;;3.60;96.60;;;;;;10416850;28;20053;-67
2020/12/09 01:40:31;;;;;;;32.38;21.83;;;3.70;96.60;;;;;;10417789;28;20088;-67
2020/12/09 01:45:33;;;;;;;27.50;20.67;;;3.70;96.40;;;;;;10415513;28;20099;-67
2020/12/09 01:50:35;;;;;;;34.45;22.20;;;3.70;96.70;;;;;;10417116;28;20081;-67
2020/12/09 01:55:36;;;;;;;33.00;21.13;;;3.60;96.80;;;;;;10416416;28;20284;-67
2020/12/09 02:00:38;;;;;;;29.15;19.73;;;3.70;97.00;;;;;;10416809;28;20046;-67
2020/12/09 02:05:41;;;;;;;30.83;20.20;;;3.70;97.00;;;;;;10415791;28;20136;-67
2020/12/09 02:10:43;;;;;;;32.33;21.08;;;3.70;97.00;;;;;;10417076;28;20046;-67
2020/12/09 02:15:44;;;;;;;33.13;20.98;;;3.80;97.30;;;;;;10414263;28;20053;-67
2020/12/09 02:20:46;;;;;;;31.50;20.98;;;3.70;97.10;;;;;;10416512;28;20080;-67
2020/12/09 02:25:48;;;;;;;33.70;21.13;;;3.80;97.20;;;;;;10415594;28;20049;-67
2020/12/09 02:30:50;;;;;;;29.73;20.50;;;3.80;97.30;;;;;;10415013;28;20045;-67
2020/12/09 02:35:52;;;;;;;30.20;20.30;;;3.90;97.40;;;;;;10415155;28;20057;-67
2020/12/09 02:40:54;;;;;;;32.25;20.95;;;3.90;97.40;;;;;;10415824;28;20049;-67
2020/12/09 02:45:56;;;;;;;31.58;19.55;;;3.90;97.40;;;;;;10414239;28;20413;-67
2020/12/09 02:50:57;;;;;;;36.42;21.23;;;3.80;97.40;;;;;;10415292;28;20084;-67
2020/12/09 02:55:59;;;;;;;39.15;23.70;;;3.90;97.60;;;;;;10413952;28;20049;-67
2020/12/09 03:01:00;;;;;;;44.28;24.13;;;3.90;98.10;;;;;;10413704;28;20540;-67
2020/12/09 03:06:02;;;;;;;44.67;25.70;;;4.00;98.00;;;;;;10413457;28;20135;-67
2020/12/09 03:11:03;;;;;;;48.15;28.13;;;4.10;98.40;;;;;;10414834;28;20128;-67
2020/12/09 03:16:04;;;;;;;45.60;29.40;;;4.00;98.70;;;;;;10413204;28;20088;-67
2020/12/09 03:21:06;;;;;;;43.17;28.52;;;4.00;99.40;;;;;;10414310;28;20125;-67
2020/12/09 03:26:08;;;;;;;41.17;26.90;;;4.20;99.30;;;;;;10413460;28;20038;-67
2020/12/09 03:31:09;;;;;;;38.15;25.30;;;4.30;98.90;;;;;;10413533;28;20041;-67
2020/12/09 03:36:11;;;;;;;39.20;26.33;;;4.40;98.60;;;;;;10413569;28;20167;-67
2020/12/09 03:41:13;;;;;;;37.53;24.85;;;4.30;99.00;;;;;;10414105;28;20041;-67
2020/12/09 03:46:14;;;;;;;36.65;25.52;;;4.40;98.90;;;;;;10412156;28;20057;-67
2020/12/09 03:51:15;;;;;;;35.38;21.98;;;4.50;98.60;;;;;;10413081;28;20482;-67
2020/12/09 03:56:20;;;;;;;36.65;23.38;;;4.40;97.80;;;;;;10412258;28;20461;-67
2020/12/09 04:01:21;;;;;;;35.10;23.02;;;4.40;97.80;;;;;;10412294;28;20125;-66
2020/12/09 04:06:23;;;;;;;31.77;22.27;;;4.30;98.10;;;;;;10412925;28;20136;-67
2020/12/09 04:11:27;;;;;;;33.83;22.30;;;4.40;97.80;;;;;;10428400;28;20049;-67
2020/12/09 04:16:29;;;;;;;39.63;24.90;;;4.40;97.80;;;;;;10411904;28;20085;-67
2020/12/09 04:21:30;;;;;;;36.05;24.83;;;4.40;97.90;;;;;;10412786;28;20049;-67
2020/12/09 04:26:32;;;;;;;40.60;25.95;;;4.50;97.90;;;;;;10412324;28;20053;-67
2020/12/09 04:31:34;;;;;;;43.50;26.42;;;4.50;97.80;;;;;;10426349;28;20042;-67
2020/12/09 04:36:36;;;;;;;36.47;24.65;;;4.60;97.80;;;;;;10412235;28;20088;-67
2020/12/09 04:41:37;;;;;;;39.85;24.35;;;4.70;97.70;;;;;;10411894;28;20120;-67
2020/12/09 04:46:47;;;;;;;36.28;24.48;;;4.70;97.50;;;;;;10411195;28;20467;-67
2020/12/09 04:52:15;;;;;;;34.45;23.05;;;4.70;97.40;;;;;;10411391;28;20103;-67
2020/12/09 04:57:54;;;;;;;37.53;24.02;;;4.60;97.30;;;;;;10411707;28;20129;-67
2020/12/09 05:03:11;;;;;;;33.70;23.42;;;4.60;97.30;;;;;;10403688;28;20076;-67
2020/12/09 05:08:21;;;;;;;36.15;23.95;;;4.60;97.30;;;;;;10391641;28;20053;-67
2020/12/09 05:13:25;;;;;;;37.22;24.73;;;4.60;97.60;;;;;;10410835;28;20049;-67
2020/12/09 05:18:40;;;;;;;41.08;25.05;;;4.60;97.60;;;;;;10411031;28;20077;-67
2020/12/09 05:23:58;;;;;;;38.10;24.38;;;4.70;97.70;;;;;;10410853;28;20129;-67
2020/12/09 05:29:10;;;;;;;38.95;25.17;;;4.70;97.60;;;;;;10410258;28;20103;-67
2020/12/09 05:34:18;;;;;;;36.85;23.63;;;4.70;97.70;;;;;;10409993;28;20124;-67
2020/12/09 05:39:21;;;;;;;34.90;23.38;;;4.70;97.70;;;;;;10410807;28;20056;-67
2020/12/09 05:44:23;;;;;;;39.90;25.67;;;4.70;97.50;;;;;;10383657;28;20092;-67
2020/12/09 05:49:27;;;;;;;40.92;26.30;;;4.70;97.90;;;;;;10405772;28;20557;-67
2020/12/09 05:54:29;;;;;;;40.63;26.08;;;4.80;97.80;;;;;;10410178;28;20060;-67
2020/12/09 05:59:35;;;;;;;40.63;26.40;;;4.80;97.80;;;;;;10424676;28;20081;-67
2020/12/09 06:04:50;;;;;;;45.42;29.73;;;4.80;97.80;;;;;;10403131;28;20327;-67
2020/12/09 06:10:26;;;;;;;51.85;31.60;;;4.70;98.40;;;;;;10409869;28;20133;-67
2020/12/09 06:15:30;;;;;;;58.63;33.00;;;4.80;98.50;;;;;;10411914;28;20463;-67
2020/12/09 06:20:33;;;;;;;54.00;31.63;;;4.70;98.60;;;;;;10417859;28;20260;-67
2020/12/09 06:25:36;;;;;;;63.25;33.45;;;4.60;98.90;;;;;;10416985;28;20049;-67
2020/12/09 06:30:37;;;;;;;74.75;36.72;;;4.60;99.20;;;;;;10415830;28;20120;-67
2020/12/09 06:35:39;;;;;;;92.20;44.75;;;4.60;99.50;;;;;;10416747;28;20489;-67
2020/12/09 06:41:03;;;;;;;74.97;39.08;;;4.70;99.60;;;;;;10415817;28;20489;-67
2020/12/09 06:46:07;;;;;;;65.03;37.47;;;4.80;99.50;;;;;;10415569;28;20136;-67
2020/12/09 06:51:40;;;;;;;85.05;42.95;;;4.80;99.10;;;;;;10415892;28;20125;-67
2020/12/09 06:56:43;;;;;;;69.85;37.08;;;4.80;99.60;;;;;;10392205;28;20084;-67
2020/12/09 07:02:05;;;;;;;65.28;36.55;;;4.90;99.50;;;;;;10429696;28;20049;-68
2020/12/09 07:07:07;;;;;;;60.50;35.08;;;5.00;99.20;;;;;;10415733;28;20462;-67
2020/12/09 07:12:08;;;;;;;77.70;39.40;;;5.00;98.90;;;;;;10414636;28;20042;-67
2020/12/09 07:17:12;;;;;;;61.90;35.28;;;5.00;98.90;;;;;;10413538;28;20045;-67
2020/12/09 07:22:13;;;;;;;63.80;35.00;;;4.90;99.00;;;;;;10407160;28;20344;-67
2020/12/09 07:27:15;;;;;;;57.95;35.25;;;4.90;99.20;;;;;;10395234;28;20128;-67
2020/12/09 07:32:21;;;;;;;58.90;34.17;;;5.00;98.90;;;;;;10403713;28;20052;-67
2020/12/09 07:37:25;;;;;;;52.78;32.53;;;5.00;99.00;;;;;;10404622;28;20483;-67
2020/12/09 07:42:27;;;;;;;52.75;31.67;;;5.00;99.10;;;;;;10406649;28;20473;-67
2020/12/09 07:47:30;;;;;;;54.38;32.78;;;5.10;99.10;;;;;;10400686;28;20144;-67
2020/12/09 07:52:36;;;;;;;56.90;32.63;;;5.10;98.80;;;;;;10408762;28;20540;-67
2020/12/09 07:57:38;;;;;;;54.95;33.08;;;5.10;98.80;;;;;;10398298;28;20049;-67
2020/12/09 08:02:41;;;;;;;58.50;33.53;;;5.10;98.80;;;;;;10394484;28;20128;-67
2020/12/09 08:07:45;;;;;;;60.70;32.05;;;5.20;98.60;;;;;;10404166;28;20268;-67
2020/12/09 08:12:47;;;;;;;53.97;31.08;;;5.30;98.60;;;;;;10407970;28;20129;-67
2020/12/09 08:17:49;;;;;;;51.47;30.88;;;5.30;98.40;;;;;;10400530;28;20048;-67
2020/12/09 08:22:55;;;;;;;59.08;31.95;;;5.40;98.30;;;;;;10404782;28;20132;-67
2020/12/09 08:28:05;;;;;;;50.40;31.42;;;5.50;97.90;;;;;;10394893;28;20650;-67
2020/12/09 08:33:12;;;;;;;56.42;32.83;;;5.40;97.90;;;;;;10396924;28;20073;-67
2020/12/09 08:38:25;;;;;;;58.03;32.95;;;5.50;97.90;;;;;;10397369;28;20474;-67
2020/12/09 08:43:29;;;;;;;51.28;31.48;;;5.60;97.60;;;;;;10398091;28;20397;-67
2020/12/09 08:48:34;;;;;;;48.58;30.13;;;5.60;97.40;;;;;;10401170;28;20544;-67
2020/12/09 08:53:36;;;;;;;50.22;29.75;;;5.70;97.10;;;;;;10401111;28;20478;-67
2020/12/09 08:58:37;;;;;;;41.58;27.40;;;5.70;97.00;;;;;;10395407;28;20049;-67
2020/12/09 09:03:39;;;;;;;50.33;30.98;;;5.80;96.60;;;;;;10397805;28;20049;-67
2020/12/09 09:08:41;;;;;;;43.80;26.30;;;5.90;96.50;;;;;;10397854;28;20328;-67
2020/12/09 09:13:42;;;;;;;37.92;23.95;;;5.90;96.00;;;;;;10402677;28;20132;-67
2020/12/09 09:18:45;;;;;;;36.72;22.50;;;5.80;95.90;;;;;;10391976;28;20052;-67
2020/12/09 09:23:47;;;;;;;38.70;24.13;;;5.90;95.50;;;;;;10402451;28;20049;-68
2020/12/09 09:28:50;;;;;;;35.67;22.15;;;5.90;95.50;;;;;;10415141;28;20270;-67
2020/12/09 09:33:51;;;;;;;35.78;22.50;;;5.90;95.50;;;;;;10397483;28;20069;-67
2020/12/09 09:38:53;;;;;;;37.20;22.38;;;6.00;95.10;;;;;;10397221;28;20099;-68
2020/12/09 09:43:54;;;;;;;42.83;25.80;;;6.00;95.20;;;;;;10402046;28;20054;-67
2020/12/09 09:48:56;;;;;;;40.55;24.42;;;6.00;95.30;;;;;;10398169;28;20042;-67
2020/12/09 09:53:57;;;;;;;41.35;24.48;;;6.00;95.30;;;;;;10409635;28;20141;-68
2020/12/09 09:58:59;;;;;;;43.03;24.65;;;6.10;95.50;;;;;;10395995;28;20100;-67
2020/12/09 10:04:00;;;;;;;37.40;23.00;;;6.20;95.20;;;;;;10410679;28;20045;-67
2020/12/09 10:09:04;;;;;;;36.65;21.95;;;6.10;95.30;;;;;;10410625;28;20080;-67
2020/12/09 10:14:09;;;;;;;34.60;21.92;;;6.10;95.00;;;;;;10401221;28;20132;-67
2020/12/09 10:19:11;;;;;;;35.65;22.20;;;6.20;95.00;;;;;;10400901;28;20053;-67
2020/12/09 10:24:12;;;;;;;34.42;22.15;;;6.20;94.80;;;;;;10406986;28;20505;-67
2020/12/09 10:29:14;;;;;;;27.17;18.75;;;6.20;94.60;;;;;;10406873;28;20049;-67
2020/12/09 10:34:18;;;;;;;28.08;18.42;;;6.30;94.30;;;;;;10408674;28;20048;-74
2020/12/09 10:39:22;;;;;;;31.25;20.00;;;6.30;94.10;;;;;;10395813;28;20050;-74
2020/12/09 10:44:23;;;;;;;27.73;17.67;;;6.30;93.80;;;;;;10404003;28;20056;-73
2020/12/09 10:49:31;;;;;;;29.10;19.75;;;6.30;94.10;;;;;;10412095;28;20054;-73
2020/12/09 10:54:33;;;;;;;29.08;19.10;;;6.40;93.80;;;;;;10408910;28;20120;-73
2020/12/09 10:59:45;;;;;;;32.45;20.50;;;6.40;93.80;;;;;;10400079;28;20564;-73
2020/12/09 11:04:47;;;;;;;28.02;18.23;;;6.40;93.80;;;;;;10404902;28;20132;-73
2020/12/09 11:09:48;;;;;;;28.02;18.48;;;6.50;93.60;;;;;;10400688;28;20046;-73
2020/12/09 11:14:52;;;;;;;27.98;18.02;;;6.50;93.20;;;;;;10405448;28;20324;-74
2020/12/09 11:19:53;;;;;;;28.23;18.42;;;6.50;93.30;;;;;;10400036;28;20124;-74
2020/12/09 11:24:57;;;;;;;30.83;18.63;;;6.50;93.40;;;;;;10403106;28;20072;-73
2020/12/09 11:29:58;;;;;;;30.95;19.40;;;6.50;93.20;;;;;;10403506;28;20383;-73
2020/12/09 11:35:00;;;;;;;32.95;20.27;;;6.40;93.10;;;;;;10397189;28;20321;-74
2020/12/09 11:40:03;;;;;;;32.88;20.50;;;6.30;92.90;;;;;;10404530;28;20049;-73
2020/12/09 11:45:06;;;;;;;29.30;18.92;;;6.30;93.50;;;;;;10402732;28;20041;-73
2020/12/09 11:50:08;;;;;;;32.30;20.67;;;6.30;93.10;;;;;;10408039;28;20080;-73
2020/12/09 11:55:11;;;;;;;34.72;21.48;;;6.40;93.00;;;;;;10403385;28;20041;-74
2020/12/09 12:00:13;;;;;;;34.78;21.98;;;6.50;93.00;;;;;;10404860;28;20092;-74
2020/12/09 12:05:15;;;;;;;34.80;21.80;;;6.40;92.80;;;;;;10401136;28;20437;-74
2020/12/09 12:10:16;;;;;;;40.42;22.42;;;6.30;93.30;;;;;;10405101;28;20545;-73
2020/12/09 12:15:18;;;;;;;45.78;21.92;;;6.40;93.00;;;;;;10402142;28;20488;-74
2020/12/09 12:20:19;;;;;;;35.47;22.63;;;6.40;93.00;;;;;;10417831;28;20077;-74
2020/12/09 12:25:21;;;;;;;32.70;20.88;;;6.40;92.80;;;;;;10407428;28;20463;-73
2020/12/09 12:30:22;;;;;;;37.40;20.83;;;6.30;92.80;;;;;;10404410;28;20116;-74
2020/12/09 12:35:24;;;;;;;35.28;21.70;;;6.40;92.70;;;;;;10395251;28;20088;-74
2020/12/09 12:40:25;;;;;;;33.13;20.95;;;6.30;92.70;;;;;;10403738;28;20128;-72
2020/12/09 12:45:27;;;;;;;35.50;21.73;;;6.40;92.70;;;;;;10390669;28;20336;-72
2020/12/09 12:50:28;;;;;;;35.28;22.15;;;6.40;92.50;;;;;;10401980;28;20045;-71
2020/12/09 12:55:30;;;;;;;39.80;23.75;;;6.40;92.60;;;;;;10403066;28;20057;-72
2020/12/09 13:00:32;;;;;;;35.70;23.25;;;6.40;92.60;;;;;;10403261;28;20065;-72
2020/12/09 13:05:33;;;;;;;36.22;22.40;;;6.30;92.70;;;;;;10400431;28;20052;-71
2020/12/09 13:10:35;;;;;;;37.90;24.42;;;6.30;92.70;;;;;;10406497;28;20508;-72
2020/12/09 13:15:40;;;;;;;33.53;20.60;;;6.20;92.60;;;;;;10394939;28;20046;-72
2020/12/09 13:20:42;;;;;;;30.88;19.48;;;6.20;92.50;;;;;;10402828;28;20073;-71
2020/12/09 13:25:43;;;;;;;33.90;20.60;;;6.00;92.70;;;;;;10404551;28;20049;-72
2020/12/09 13:30:45;;;;;;;29.30;19.60;;;6.20;92.80;;;;;;10406111;28;20064;-72
2020/12/09 13:35:47;;;;;;;33.15;19.70;;;6.20;92.50;;;;;;10399821;28;20133;-72
2020/12/09 13:40:48;;;;;;;31.42;20.40;;;6.10;92.40;;;;;;10401005;28;20041;-72
2020/12/09 13:45:51;;;;;;;31.15;20.30;;;6.10;92.40;;;;;;10397846;28;20049;-72
2020/12/09 13:50:52;;;;;;;35.70;21.75;;;6.20;92.50;;;;;;10397902;28;20152;-72
2020/12/09 13:55:53;;;;;;;32.65;21.13;;;6.30;92.40;;;;;;10402400;28;20136;-72
2020/12/09 14:00:56;;;;;;;30.85;19.95;;;6.30;92.20;;;;;;10402501;28;20041;-72
2020/12/09 14:05:57;;;;;;;29.85;19.02;;;6.30;92.10;;;;;;10399254;28;20494;-72
2020/12/09 14:10:59;;;;;;;31.45;20.05;;;6.40;92.00;;;;;;10397969;28;20184;-72
2020/12/09 14:16:00;;;;;;;30.63;19.92;;;6.50;91.90;;;;;;10393773;28;20140;-72
2020/12/09 14:21:02;;;;;;;36.67;20.52;;;6.50;92.00;;;;;;10397213;28;20519;-72
2020/12/09 14:26:04;;;;;;;33.03;20.90;;;6.40;92.00;;;;;;10399538;28;20049;-72
2020/12/09 14:31:06;;;;;;;36.97;23.05;;;6.40;92.00;;;;;;10404534;28;20124;-71
2020/12/09 14:36:14;;;;;;;36.03;22.92;;;6.40;91.90;;;;;;10406475;28;20059;-72
2020/12/09 14:41:16;;;;;;;34.90;22.00;;;6.40;92.10;;;;;;10407249;28;20060;-72
2020/12/09 14:46:18;;;;;;;33.33;21.98;;;6.50;92.30;;;;;;10406055;28;20058;-72
2020/12/09 14:51:22;;;;;;;50.03;22.13;;;6.50;92.30;;;;;;10408864;28;20059;-72
2020/12/09 14:56:23;;;;;;;40.60;22.48;;;6.50;92.10;;;;;;10415818;28;20132;-71
2020/12/09 15:01:24;;;;;;;33.90;22.52;;;6.40;92.50;;;;;;10415122;28;20076;-71
2020/12/09 15:06:27;;;;;;;37.83;22.63;;;6.40;92.50;;;;;;10415657;28;20053;-72
2020/12/09 15:11:29;;;;;;;37.40;23.58;;;6.40;92.30;;;;;;10414791;28;20045;-72
2020/12/09 15:16:30;;;;;;;35.50;22.83;;;6.40;92.30;;;;;;10414246;28;20128;-72
2020/12/09 15:21:32;;;;;;;37.55;23.45;;;6.40;92.40;;;;;;10414940;28;20085;-72
2020/12/09 15:26:33;;;;;;;39.38;23.50;;;6.40;92.20;;;;;;10413935;28;20141;-72
2020/12/09 15:31:35;;;;;;;36.50;24.48;;;6.30;92.30;;;;;;10413752;28;20049;-71
2020/12/09 15:36:36;;;;;;;36.88;24.45;;;6.30;92.40;;;;;;10414561;28;20133;-72
2020/12/09 15:41:38;;;;;;;39.85;25.15;;;6.30;92.40;;;;;;10413286;28;20041;-72
2020/12/09 15:46:39;;;;;;;36.50;23.77;;;6.30;92.50;;;;;;10413034;28;20053;-72
2020/12/09 15:51:41;;;;;;;36.78;23.65;;;6.20;92.60;;;;;;10412945;28;20412;-72
2020/12/09 15:56:43;;;;;;;39.33;25.08;;;6.20;92.60;;;;;;10414027;28;20080;-72
2020/12/09 16:01:45;;;;;;;41.10;25.17;;;6.20;92.40;;;;;;10412914;28;20485;-72
2020/12/09 16:06:47;;;;;;;39.70;25.30;;;6.30;92.40;;;;;;10387455;28;20057;-71
2020/12/09 16:11:52;;;;;;;35.25;23.88;;;6.30;92.50;;;;;;10408402;28;20085;-67
2020/12/09 16:16:56;;;;;;;41.33;25.95;;;6.20;92.60;;;;;;10411654;28;20052;-68
2020/12/09 16:21:58;;;;;;;43.03;27.63;;;6.20;92.40;;;;;;10427821;28;20045;-67
2020/12/09 16:26:59;;;;;;;43.08;27.67;;;6.20;92.20;;;;;;10411072;28;20080;-67
2020/12/09 16:32:06;;;;;;;44.05;27.10;;;6.20;92.20;;;;;;10400835;28;20136;-67
2020/12/09 16:37:12;;;;;;;46.95;26.08;;;6.20;92.00;;;;;;10403185;28;20117;-67
2020/12/09 16:42:14;;;;;;;47.83;27.80;;;6.00;92.40;;;;;;10400364;28;20386;-67
2020/12/09 16:47:19;;;;;;;48.10;28.83;;;6.10;92.90;;;;;;10393895;28;20124;-67
2020/12/09 16:52:20;;;;;;;45.90;27.90;;;6.00;92.70;;;;;;10395491;28;20137;-67
2020/12/09 16:57:23;;;;;;;43.33;27.60;;;5.90;93.10;;;;;;10399463;28;20088;-67
2020/12/09 17:02:27;;;;;;;44.13;27.42;;;5.90;92.90;;;;;;10401870;28;20076;-67
2020/12/09 17:07:29;;;;;;;42.65;27.95;;;5.90;93.10;;;;;;10406204;28;20501;-67
2020/12/09 17:12:30;;;;;;;47.72;28.15;;;6.00;93.10;;;;;;10396224;28;20041;-67
2020/12/09 17:17:32;;;;;;;46.05;28.45;;;6.00;93.30;;;;;;10389616;28;20219;-67
2020/12/09 17:22:34;;;;;;;53.22;31.48;;;6.00;93.30;;;;;;10392286;28;20104;-67
2020/12/09 17:27:36;;;;;;;46.83;27.42;;;6.00;93.20;;;;;;10400866;28;20091;-67
2020/12/09 17:32:37;;;;;;;42.25;26.00;;;5.90;93.20;;;;;;10403143;28;20069;-67
2020/12/09 17:37:39;;;;;;;46.38;28.10;;;5.90;93.10;;;;;;10403359;28;20132;-67
2020/12/09 17:42:40;;;;;;;48.08;27.50;;;5.80;93.10;;;;;;10399614;28;20041;-67
2020/12/09 17:47:42;;;;;;;48.17;27.58;;;5.60;93.20;;;;;;10401310;28;20064;-67
2020/12/09 17:52:43;;;;;;;31.17;20.83;;;5.60;93.40;;;;;;10400188;28;20103;-67
2020/12/09 17:57:45;;;;;;;25.77;17.70;;;5.40;93.20;;;;;;10380947;28;20053;-67
2020/12/09 18:02:46;;;;;;;24.33;16.77;;;5.30;93.00;;;;;;10396564;28;20048;-67
2020/12/09 18:07:47;;;;;;;24.83;16.27;;;5.00;92.80;;;;;;10399104;28;20388;-67
2020/12/09 18:12:50;;;;;;;22.90;15.10;;;4.80;93.20;;;;;;10411503;28;20052;-67
2020/12/09 18:17:51;;;;;;;20.92;14.70;;;4.80;93.10;;;;;;10406939;28;20132;-67
2020/12/09 18:22:53;;;;;;;20.30;13.52;;;4.70;93.30;;;;;;10404911;28;20129;-67
2020/12/09 18:27:56;;;;;;;19.33;13.25;;;4.80;92.90;;;;;;10418533;28;20096;-67
2020/12/09 18:33:00;;;;;;;18.38;13.15;;;4.70;93.00;;;;;;10399091;28;20073;-67
2020/12/09 18:38:01;;;;;;;20.13;13.52;;;4.70;93.10;;;;;;10406342;28;20077;-67
2020/12/09 18:43:03;;;;;;;19.67;13.23;;;4.80;92.80;;;;;;10401743;28;20149;-67
2020/12/09 18:48:04;;;;;;;18.38;13.93;;;4.80;92.60;;;;;;10383594;28;20052;-67
2020/12/09 18:53:06;;;;;;;19.63;13.68;;;4.70;92.20;;;;;;10373027;28;20129;-67
2020/12/09 18:58:08;;;;;;;17.55;13.50;;;4.60;93.00;;;;;;10381368;28;20076;-67
2020/12/09 19:03:10;;;;;;;18.08;13.43;;;4.70;92.70;;;;;;10374993;28;20149;-67
2020/12/09 19:08:11;;;;;;;18.25;14.48;;;4.80;92.30;;;;;;10376942;28;20058;-67
2020/12/09 19:13:13;;;;;;;18.65;14.63;;;4.60;92.50;;;;;;10373426;28;20056;-67
2020/12/09 19:18:14;;;;;;;20.75;14.95;;;4.60;92.10;;;;;;10394724;28;20061;-68
2020/12/09 19:23:17;;;;;;;21.48;15.43;;;4.50;92.10;;;;;;10406299;28;20050;-67
2020/12/09 19:28:19;;;;;;;21.17;15.55;;;4.30;92.00;;;;;;10411815;28;20144;-67
2020/12/09 19:33:21;;;;;;;21.73;16.30;;;4.30;92.10;;;;;;10386473;28;20042;-67
2020/12/09 19:38:23;;;;;;;23.25;16.33;;;4.10;92.10;;;;;;10410376;28;20152;-67
2020/12/09 19:43:25;;;;;;;22.02;17.30;;;4.00;92.30;;;;;;10405448;28;20576;-67
2020/12/09 19:48:26;;;;;;;23.13;17.30;;;3.90;92.40;;;;;;10426050;28;20045;-67
2020/12/09 19:53:28;;;;;;;25.13;18.10;;;3.80;92.50;;;;;;10405459;28;20345;-67
2020/12/09 19:58:29;;;;;;;23.98;18.67;;;3.80;92.40;;;;;;10405325;28;20053;-67
2020/12/09 20:03:32;;;;;;;25.05;17.75;;;3.70;92.50;;;;;;10412168;28;20522;-67
2020/12/09 20:08:34;;;;;;;24.70;18.63;;;3.70;92.60;;;;;;10412587;28;20057;-67
2020/12/09 20:13:36;;;;;;;28.00;18.77;;;3.60;92.50;;;;;;10424286;28;20558;-67
2020/12/09 20:18:38;;;;;;;26.27;18.30;;;3.60;92.70;;;;;;10431640;28;20529;-67
2020/12/09 20:23:44;;;;;;;26.30;18.45;;;3.60;92.80;;;;;;10410236;28;20124;-67
2020/12/09 20:28:46;;;;;;;32.50;22.95;;;3.50;93.50;;;;;;10409433;28;20484;-67
2020/12/09 20:33:48;;;;;;;42.88;32.53;;;3.40;93.10;;;;;;10408798;28;20041;-67
2020/12/09 20:38:49;;;;;;;85.95;61.67;;;3.30;93.40;;;;;;10410036;28;20041;-67
2020/12/09 20:43:52;;;;;;;51.08;35.90;;;3.40;93.50;;;;;;10410027;28;20169;-67
2020/12/09 20:48:55;;;;;;;34.25;22.90;;;3.50;93.30;;;;;;10407135;28;20540;-67
2020/12/09 20:53:57;;;;;;;32.65;20.98;;;3.60;93.00;;;;;;10408995;28;20058;-67
2020/12/09 20:58:58;;;;;;;34.75;21.08;;;3.60;93.00;;;;;;10415623;28;20140;-67
2020/12/09 21:04:00;;;;;;;31.42;22.00;;;3.70;92.60;;;;;;10423321;28;20045;-67
2020/12/09 21:09:07;;;;;;;37.00;23.17;;;3.70;92.70;;;;;;10434493;28;20458;-67
2020/12/09 21:14:08;;;;;;;32.85;21.95;;;3.50;92.80;;;;;;10408594;28;20092;-67
2020/12/09 21:19:13;;;;;;;33.45;22.45;;;3.40;93.10;;;;;;10408238;28;20140;-67
2020/12/09 21:24:16;;;;;;;32.95;23.25;;;3.40;93.20;;;;;;10403950;28;20060;-67
2020/12/09 21:29:17;;;;;;;34.78;23.58;;;3.40;93.20;;;;;;10399042;28;20160;-67
2020/12/09 21:34:19;;;;;;;33.13;22.23;;;3.40;92.90;;;;;;10399736;28;20461;-67
2020/12/09 21:39:21;;;;;;;34.33;23.00;;;3.30;93.30;;;;;;10409293;28;20045;-67
2020/12/09 21:44:22;;;;;;;30.77;21.88;;;3.30;93.20;;;;;;10416023;28;20089;-67
2020/12/09 21:49:25;;;;;;;30.67;21.52;;;3.20;93.50;;;;;;10412526;28;20089;-67
2020/12/09 21:54:26;;;;;;;30.85;21.17;;;3.20;93.40;;;;;;10412691;28;20053;-67
2020/12/09 21:59:28;;;;;;;30.80;21.10;;;3.20;93.60;;;;;;10415511;28;20092;-67
2020/12/09 22:04:30;;;;;;;29.33;20.83;;;3.30;93.40;;;;;;10417559;28;20042;-67
2020/12/09 22:09:33;;;;;;;27.20;19.52;;;3.40;93.10;;;;;;10416575;28;20048;-66
2020/12/09 22:14:35;;;;;;;31.42;20.52;;;3.50;93.00;;;;;;10415517;28;20064;-67
2020/12/09 22:19:37;;;;;;;27.08;19.85;;;3.50;92.90;;;;;;10416023;28;20103;-67
2020/12/09 22:24:42;;;;;;;25.60;19.35;;;3.50;92.90;;;;;;10416704;28;20498;-67
2020/12/09 22:29:44;;;;;;;26.70;19.27;;;3.60;92.80;;;;;;10416395;28;20269;-67
2020/12/09 22:34:46;;;;;;;25.42;18.65;;;3.60;92.70;;;;;;10430471;28;20050;-67
2020/12/09 22:39:48;;;;;;;30.45;20.08;;;3.70;92.50;;;;;;10430689;28;20049;-67
2020/12/09 22:44:50;;;;;;;26.27;19.52;;;3.70;92.40;;;;;;10414903;28;20055;-67
2020/12/09 22:49:52;;;;;;;24.98;18.67;;;3.60;92.10;;;;;;10413663;28;20252;-67
2020/12/09 22:54:53;;;;;;;26.05;18.60;;;3.70;92.50;;;;;;10415565;28;20042;-67
2020/12/09 22:59:55;;;;;;;23.95;17.80;;;3.80;92.10;;;;;;10412618;28;20053;-67
2020/12/09 23:04:57;;;;;;;26.23;18.25;;;3.70;92.00;;;;;;10407606;28;20046;-67
2020/12/09 23:09:59;;;;;;;25.58;18.38;;;3.70;91.90;;;;;;10410592;28;20103;-67
2020/12/09 23:15:00;;;;;;;23.40;18.00;;;3.70;92.20;;;;;;10411934;28;20133;-67
2020/12/09 23:20:05;;;;;;;26.95;17.95;;;3.80;91.80;;;;;;10412589;28;20132;-67
2020/12/09 23:25:06;;;;;;;24.85;18.55;;;3.80;91.90;;;;;;10411195;28;20053;-67
2020/12/09 23:30:08;;;;;;;26.95;19.35;;;3.80;92.00;;;;;;10410646;28;20564;-67
2020/12/09 23:35:10;;;;;;;23.45;17.73;;;3.80;91.90;;;;;;10412694;28;20053;-67
2020/12/09 23:40:11;;;;;;;25.83;18.48;;;3.80;92.10;;;;;;10412265;28;20082;-67
2020/12/09 23:45:13;;;;;;;24.98;18.35;;;3.80;92.00;;;;;;10411664;28;20075;-67
2020/12/09 23:50:15;;;;;;;24.15;18.02;;;3.70;92.00;;;;;;10411388;28;20418;-67
2020/12/09 23:55:16;;;;;;;22.92;16.90;;;3.60;92.40;;;;;;10412322;28;20077;-67
